createdAt,value
2019-05-22T00:00:34.779Z,22.23
2019-05-22T00:03:06.354Z,21.43
2019-05-22T00:05:38.041Z,21.37
2019-05-22T00:08:08.937Z,21.57
2019-05-22T00:10:40.856Z,21.60
2019-05-22T00:13:14.165Z,20.00
2019-05-22T00:15:46.215Z,22.00
2019-05-22T00:18:18.254Z,23.27
2019-05-22T00:20:49.060Z,21.03
2019-05-22T00:23:19.622Z,21.57
2019-05-22T00:25:50.963Z,22.00
2019-05-22T00:28:22.386Z,21.87
2019-05-22T00:30:52.839Z,21.03
2019-05-22T00:33:23.267Z,24.43
2019-05-22T00:35:55.511Z,22.47
2019-05-22T00:38:26.682Z,21.03
2019-05-22T00:41:02.882Z,21.83
2019-05-22T00:43:37.561Z,22.30
2019-05-22T00:46:09.837Z,20.10
2019-05-22T00:48:41.819Z,21.27
2019-05-22T00:51:37.631Z,22.07
2019-05-22T00:54:35.685Z,22.13
2019-05-22T00:57:22.821Z,22.13
2019-05-22T00:59:54.875Z,19.97
2019-05-22T02:00:56.435Z,21.57
2019-05-22T02:03:27.730Z,19.93
2019-05-22T02:05:57.848Z,19.67
2019-05-22T02:08:30.081Z,20.43
2019-05-22T02:11:01.957Z,21.33
2019-05-22T02:13:35.716Z,19.93
2019-05-22T02:16:08.687Z,19.13
2019-05-22T02:18:41.513Z,19.33
2019-05-22T02:21:12.964Z,21.07
2019-05-22T02:23:43.686Z,19.43
2019-05-22T02:26:15.475Z,18.60
2019-05-22T02:28:46.191Z,20.40
2019-05-22T02:31:19.032Z,18.17
2019-05-22T02:34:03.766Z,19.57
2019-05-22T02:36:37.010Z,18.17
2019-05-22T02:39:12.120Z,19.13
2019-05-22T02:41:46.031Z,18.97
2019-05-22T02:44:16.284Z,19.10
2019-05-22T02:46:47.205Z,19.03
2019-05-22T02:49:18.410Z,19.97
2019-05-22T02:51:50.592Z,19.10
2019-05-22T02:54:21.307Z,19.03
2019-05-22T02:56:52.731Z,18.37
2019-05-22T02:59:24.392Z,19.37
2019-05-22T03:01:55.018Z,17.37
2019-05-22T03:04:25.092Z,19.03
2019-05-22T03:06:55.737Z,19.83
2019-05-22T03:09:29.984Z,19.23
2019-05-22T03:12:08.769Z,17.47
2019-05-22T03:14:39.953Z,19.10
2019-05-22T03:17:22.527Z,18.33
2019-05-22T03:19:53.416Z,17.00
2019-05-22T03:22:28.613Z,17.80
2019-05-22T03:25:00.205Z,18.67
2019-05-22T03:27:38.855Z,15.97
2019-05-22T03:30:11.164Z,16.53
2019-05-22T03:32:44.053Z,17.60
2019-05-22T03:35:15.380Z,15.80
2019-05-22T03:37:45.824Z,18.13
2019-05-22T03:40:17.481Z,17.57
2019-05-22T03:42:48.341Z,17.17
2019-05-22T03:45:19.249Z,16.77
2019-05-22T03:47:51.675Z,16.77
2019-05-22T03:50:22.731Z,17.30
2019-05-22T03:52:53.456Z,15.83
2019-05-22T03:55:23.587Z,15.37
2019-05-22T03:57:53.564Z,16.73
2019-05-22T04:00:25.893Z,15.80
2019-05-22T04:02:56.617Z,16.20
2019-05-22T04:05:28.023Z,16.17
2019-05-22T04:08:00.591Z,16.73
2019-05-22T04:10:34.201Z,16.80
2019-05-22T04:13:04.414Z,15.73
2019-05-22T04:15:34.303Z,15.43
2019-05-22T04:18:12.678Z,16.43
2019-05-22T04:20:42.846Z,15.77
2019-05-22T04:23:14.624Z,17.20
2019-05-22T04:25:45.164Z,18.83
2019-05-22T04:28:15.123Z,16.00
2019-05-22T04:30:46.056Z,15.63
2019-05-22T04:33:16.985Z,16.47
2019-05-22T04:35:49.208Z,16.93
2019-05-22T04:38:19.118Z,15.80
2019-05-22T04:40:51.105Z,15.87
2019-05-22T04:43:23.469Z,15.73
2019-05-22T04:45:55.379Z,17.10
2019-05-22T04:48:27.279Z,16.67
2019-05-22T04:51:00.573Z,16.93
2019-05-22T04:53:30.966Z,15.83
2019-05-22T04:56:01.416Z,16.27
2019-05-22T04:58:31.893Z,14.47
2019-05-22T05:01:02.896Z,15.57
2019-05-22T05:03:35.307Z,14.20
2019-05-22T05:06:07.057Z,14.77
2019-05-22T05:08:37.366Z,14.97
2019-05-22T05:11:07.922Z,14.60
2019-05-22T05:13:38.590Z,14.93
2019-05-22T05:16:09.340Z,15.87
2019-05-22T05:18:39.805Z,14.40
2019-05-22T05:21:10.266Z,14.37
2019-05-22T05:23:40.697Z,14.10
2019-05-22T05:26:10.706Z,13.43
2019-05-22T05:28:41.584Z,13.90
2019-05-22T05:31:12.737Z,14.43
2019-05-22T05:33:57.534Z,12.77
2019-05-22T05:36:28.423Z,14.70
2019-05-22T05:38:58.758Z,15.13
2019-05-22T05:41:29.995Z,13.87
2019-05-22T05:44:00.477Z,14.77
2019-05-22T05:46:30.544Z,23.97
2019-05-22T05:49:00.968Z,15.60
2019-05-22T05:51:33.898Z,22.60
2019-05-22T05:54:15.085Z,15.77
2019-05-22T05:56:48.123Z,21.87
2019-05-22T05:59:18.855Z,21.77
2019-05-22T06:01:53.200Z,20.77
2019-05-22T06:04:34.652Z,16.83
2019-05-22T06:07:18.115Z,16.10
2019-05-22T06:10:07.470Z,16.97
2019-05-22T06:12:39.425Z,16.87
2019-05-22T06:15:12.788Z,16.93
2019-05-22T06:18:14.208Z,17.77
2019-05-22T06:20:44.370Z,16.73
2019-05-22T06:23:35.119Z,16.37
2019-05-22T06:26:06.503Z,14.47
2019-05-22T06:28:37.787Z,14.90
2019-05-22T06:31:10.398Z,13.93
2019-05-22T06:33:40.794Z,14.23
2019-05-22T06:36:14.387Z,14.13
2019-05-22T06:39:12.104Z,14.73
2019-05-22T06:41:44.078Z,14.27
2019-05-22T06:44:39.863Z,12.87
2019-05-22T06:47:13.457Z,14.70
2019-05-22T06:49:47.590Z,12.50
2019-05-22T06:52:17.681Z,12.87
2019-05-22T06:54:49.047Z,12.23
2019-05-22T06:57:23.178Z,11.43
2019-05-22T07:00:11.616Z,11.27
2019-05-22T07:02:27.103Z,11.13
2019-05-22T07:04:57.216Z,10.60
2019-05-22T07:07:29.109Z,9.77
2019-05-22T07:09:59.385Z,9.57
2019-05-22T07:12:34.749Z,10.23
2019-05-22T07:15:25.968Z,9.73
2019-05-22T07:17:57.967Z,8.43
2019-05-22T07:20:30.794Z,8.40
2019-05-22T07:23:03.337Z,8.53
2019-05-22T07:25:35.466Z,7.87
2019-05-22T07:28:07.313Z,8.13
2019-05-22T07:30:37.836Z,8.50
2019-05-22T07:33:08.691Z,7.53
2019-05-22T07:36:04.655Z,9.00
2019-05-22T07:38:11.636Z,8.20
2019-05-22T07:40:42.505Z,6.77
2019-05-22T07:43:13.416Z,6.67
2019-05-22T07:45:43.948Z,7.60
2019-05-22T07:48:15.113Z,6.60
2019-05-22T07:50:49.455Z,6.17
2019-05-22T07:53:20.044Z,6.93
2019-05-22T07:55:52.392Z,6.60
2019-05-22T07:58:22.578Z,5.87
2019-05-22T08:00:55.500Z,4.80
2019-05-22T08:03:26.054Z,5.33
2019-05-22T08:05:57.550Z,5.80
2019-05-22T08:08:29.588Z,5.00
2019-05-22T08:11:01.494Z,5.00
2019-05-22T08:13:32.091Z,4.47
2019-05-22T08:16:03.108Z,5.00
2019-05-22T08:18:36.322Z,4.43
2019-05-22T08:21:08.255Z,3.80
2019-05-22T08:23:38.462Z,3.60
2019-05-22T08:26:10.420Z,4.40
2019-05-22T08:28:41.588Z,3.80
2019-05-22T08:31:13.312Z,3.87
2019-05-22T08:33:44.500Z,4.07
2019-05-22T08:36:15.216Z,3.63
2019-05-22T08:38:45.934Z,3.27
2019-05-22T08:41:17.622Z,4.57
2019-05-22T08:44:13.929Z,3.20
2019-05-22T08:46:20.891Z,3.30
2019-05-22T08:48:52.587Z,3.00
2019-05-22T08:51:22.617Z,2.90
2019-05-22T08:53:53.018Z,2.60
2019-05-22T08:56:24.187Z,2.67
2019-05-22T08:58:55.095Z,2.47
2019-05-22T09:01:25.674Z,2.53
2019-05-22T09:03:55.584Z,2.17
2019-05-22T09:06:26.665Z,2.10
2019-05-22T09:08:57.071Z,3.10
2019-05-22T09:11:27.434Z,2.60
2019-05-22T09:13:57.265Z,3.07
2019-05-22T09:16:27.334Z,2.37
2019-05-22T09:18:57.583Z,2.13
2019-05-22T09:21:28.215Z,2.70
2019-05-22T09:24:00.510Z,2.83
2019-05-22T09:26:30.815Z,2.47
2019-05-22T09:29:02.180Z,2.20
2019-05-22T09:31:32.601Z,2.50
2019-05-22T09:34:03.900Z,2.10
2019-05-22T09:36:33.620Z,1.90
2019-05-22T09:39:04.676Z,2.10
2019-05-22T09:41:34.797Z,2.67
2019-05-22T09:44:05.235Z,2.63
2019-05-22T09:46:35.630Z,2.87
2019-05-22T09:49:07.477Z,3.07
2019-05-22T09:51:38.260Z,2.20
2019-05-22T09:54:10.421Z,2.80
2019-05-22T09:56:41.767Z,2.27
2019-05-22T09:59:12.536Z,2.73
2019-05-22T10:01:43.230Z,2.93
2019-05-22T10:04:14.675Z,3.13
2019-05-22T10:06:46.151Z,2.83
2019-05-22T10:09:17.006Z,3.73
2019-05-22T10:11:49.034Z,2.87
2019-05-22T10:14:21.410Z,3.23
2019-05-22T10:16:52.916Z,3.00
2019-05-22T10:19:24.659Z,3.40
2019-05-22T10:21:57.289Z,2.97
2019-05-22T10:24:29.264Z,4.17
2019-05-22T10:27:00.052Z,4.23
2019-05-22T10:29:32.423Z,5.00
2019-05-22T10:32:04.799Z,5.20
2019-05-22T10:34:36.579Z,4.93
2019-05-22T10:37:08.621Z,4.67
2019-05-22T10:39:39.909Z,6.20
2019-05-22T10:42:10.659Z,6.40
2019-05-22T10:44:41.988Z,5.23
2019-05-22T10:47:12.781Z,6.53
2019-05-22T10:49:43.871Z,5.60
2019-05-22T10:52:15.059Z,7.20
2019-05-22T10:54:46.327Z,6.83
2019-05-22T10:57:19.799Z,6.07
2019-05-22T10:59:54.709Z,7.80
2019-05-22T11:02:27.123Z,6.83
2019-05-22T11:04:58.603Z,7.07
2019-05-22T11:07:30.418Z,6.90
2019-05-22T11:10:02.044Z,7.10
2019-05-22T11:12:33.985Z,8.07
2019-05-22T11:15:06.055Z,7.43
2019-05-22T11:17:38.243Z,6.97
2019-05-22T11:20:11.704Z,7.83
2019-05-22T11:22:41.980Z,8.07
2019-05-22T11:25:14.982Z,8.97
2019-05-22T11:27:46.916Z,7.60
2019-05-22T11:30:19.874Z,7.93
2019-05-22T11:32:51.193Z,8.60
2019-05-22T11:35:22.830Z,7.77
2019-05-22T11:37:53.660Z,8.43
2019-05-22T11:40:26.490Z,8.10
2019-05-22T11:42:59.402Z,9.23
2019-05-22T11:45:31.717Z,8.93
2019-05-22T11:48:04.069Z,8.77
2019-05-22T11:50:35.855Z,8.20
2019-05-22T11:53:07.311Z,7.47
2019-05-22T11:55:45.336Z,7.17
2019-05-22T11:58:13.539Z,7.27
2019-05-22T12:00:44.702Z,8.43
2019-05-22T12:03:16.656Z,8.07
2019-05-22T12:05:48.659Z,7.63
2019-05-22T12:08:21.300Z,7.20
2019-05-22T12:10:52.742Z,7.73
2019-05-22T12:13:23.882Z,6.73
2019-05-22T12:15:56.231Z,7.47
2019-05-22T12:18:27.130Z,7.30
2019-05-22T12:20:57.886Z,8.07
2019-05-22T12:23:29.310Z,7.97
2019-05-22T12:26:01.160Z,8.30
2019-05-22T12:28:32.615Z,7.23
2019-05-22T12:31:04.127Z,6.77
2019-05-22T12:33:35.359Z,5.87
2019-05-22T12:36:09.579Z,6.30
2019-05-22T12:38:42.016Z,7.20
2019-05-22T12:41:15.167Z,5.87
2019-05-22T12:43:46.499Z,6.43
2019-05-22T12:46:19.684Z,7.90
2019-05-22T12:48:50.809Z,6.97
2019-05-22T12:51:22.487Z,6.70
2019-05-22T12:53:54.170Z,7.03
2019-05-22T12:56:25.195Z,7.17
2019-05-22T12:58:57.424Z,7.00
2019-05-22T13:01:29.990Z,7.10
2019-05-22T13:04:02.892Z,7.43
2019-05-22T13:06:35.591Z,7.03
2019-05-22T13:09:10.884Z,7.23
2019-05-22T13:11:43.395Z,7.37
2019-05-22T13:14:14.286Z,6.33
2019-05-22T13:16:48.977Z,7.13
2019-05-22T13:19:21.276Z,6.97
2019-05-22T13:21:54.134Z,7.07
2019-05-22T13:24:27.934Z,6.43
2019-05-22T13:26:59.654Z,5.90
2019-05-22T13:29:32.651Z,5.97
2019-05-22T13:32:06.284Z,6.10
2019-05-22T13:34:40.426Z,6.37
2019-05-22T13:37:14.447Z,6.20
2019-05-22T13:39:46.399Z,6.30
2019-05-22T13:42:17.727Z,6.33
2019-05-22T13:44:49.478Z,5.67
2019-05-22T13:47:20.932Z,4.93
2019-05-22T13:49:52.819Z,5.60
2019-05-22T13:52:24.274Z,4.80
2019-05-22T13:54:57.947Z,5.03
2019-05-22T13:57:30.759Z,4.90
2019-05-22T14:00:02.066Z,5.10
2019-05-22T14:02:33.745Z,5.73
2019-05-22T14:05:05.712Z,5.90
2019-05-22T14:07:36.961Z,5.67
2019-05-22T14:10:09.303Z,4.83
2019-05-22T14:12:42.901Z,5.73
2019-05-22T14:15:14.861Z,5.93
2019-05-22T14:17:46.529Z,6.33
2019-05-22T14:20:18.856Z,5.63
2019-05-22T14:22:49.907Z,5.60
2019-05-22T14:25:22.921Z,5.80
2019-05-22T14:27:54.987Z,5.57
2019-05-22T14:30:26.625Z,5.43
2019-05-22T14:33:04.182Z,5.53
2019-05-22T14:35:47.500Z,6.60
2019-05-22T14:38:07.853Z,5.30
2019-05-22T14:40:40.549Z,6.60
2019-05-22T14:43:12.929Z,6.47
2019-05-22T14:45:45.872Z,7.67
2019-05-22T14:48:17.081Z,7.20
2019-05-22T14:50:48.867Z,6.87
2019-05-22T14:53:22.792Z,7.70
2019-05-22T14:55:55.017Z,7.30
2019-05-22T14:58:26.423Z,7.33
2019-05-22T15:00:57.326Z,7.03
2019-05-22T15:03:28.976Z,6.63
2019-05-22T15:06:00.273Z,7.20
2019-05-22T15:08:31.353Z,6.80
2019-05-22T15:11:03.287Z,7.90
2019-05-22T15:13:39.142Z,7.20
2019-05-22T15:16:11.719Z,8.10
2019-05-22T15:18:44.351Z,8.47
2019-05-22T15:21:18.195Z,8.50
2019-05-22T15:23:52.007Z,7.70
2019-05-22T15:26:23.275Z,8.80
2019-05-22T15:28:54.317Z,9.43
2019-05-22T15:31:25.353Z,9.10
2019-05-22T15:33:57.311Z,8.30
2019-05-22T15:36:29.302Z,8.80
2019-05-22T15:39:02.258Z,9.77
2019-05-22T15:41:34.745Z,8.57
2019-05-22T15:44:06.452Z,8.83
2019-05-22T15:46:38.223Z,8.90
2019-05-22T15:49:10.778Z,9.27
2019-05-22T15:51:42.727Z,9.37
2019-05-22T15:54:14.474Z,8.70
2019-05-22T15:56:46.234Z,9.93
2019-05-22T15:59:20.492Z,10.00
2019-05-22T16:01:52.606Z,25.03
2019-05-22T16:04:25.188Z,10.47
2019-05-22T16:06:57.717Z,9.57
2019-05-22T16:09:30.121Z,8.93
2019-05-22T16:12:02.313Z,9.27
2019-05-22T16:14:34.992Z,10.43
2019-05-22T16:17:08.519Z,9.93
2019-05-22T16:19:41.264Z,9.33
2019-05-22T16:22:13.017Z,9.40
2019-05-22T16:24:44.668Z,10.43
2019-05-22T16:27:17.288Z,10.47
2019-05-22T16:29:48.506Z,10.33
2019-05-22T16:32:21.935Z,9.13
2019-05-22T16:34:53.137Z,8.13
2019-05-22T16:37:26.035Z,9.17
2019-05-22T16:39:57.543Z,8.60
2019-05-22T16:42:30.386Z,8.87
2019-05-22T16:45:01.644Z,10.00
2019-05-22T16:47:33.580Z,10.30
2019-05-22T16:50:07.226Z,10.07
2019-05-22T16:52:40.175Z,9.10
2019-05-22T16:55:13.239Z,8.80
2019-05-22T16:57:44.736Z,11.83
2019-05-22T17:00:16.930Z,17.53
2019-05-22T17:02:50.178Z,9.53
2019-05-22T17:05:23.067Z,8.80
2019-05-22T17:07:54.549Z,9.83
2019-05-22T17:10:25.763Z,9.07
2019-05-22T17:12:58.719Z,9.10
2019-05-22T17:15:30.942Z,8.73
2019-05-22T17:18:01.840Z,8.80
2019-05-22T17:20:33.884Z,7.63
2019-05-22T17:23:05.974Z,7.90
2019-05-22T17:25:37.994Z,7.93
2019-05-22T17:28:10.038Z,8.40
2019-05-22T17:30:42.402Z,8.13
2019-05-22T17:33:15.215Z,8.17
2019-05-22T17:35:47.939Z,8.17
2019-05-22T17:38:19.842Z,7.50
2019-05-22T17:40:51.003Z,6.87
2019-05-22T17:43:23.149Z,8.53
2019-05-22T17:45:56.452Z,7.03
2019-05-22T17:48:28.219Z,7.07
2019-05-22T17:50:58.859Z,5.47
2019-05-22T17:53:30.648Z,5.93
2019-05-22T17:56:02.232Z,6.13
2019-05-22T17:58:47.567Z,5.27
2019-05-22T18:01:19.632Z,21.47
2019-05-22T18:03:51.435Z,8.80
2019-05-22T18:06:22.267Z,7.03
2019-05-22T18:09:06.447Z,6.67
2019-05-22T18:11:37.717Z,7.97
2019-05-22T18:14:10.220Z,7.50
2019-05-22T18:16:41.920Z,7.23
2019-05-22T18:19:13.163Z,7.23
2019-05-22T18:21:44.355Z,7.23
2019-05-22T18:24:15.339Z,7.20
2019-05-22T18:27:07.616Z,6.63
2019-05-22T18:29:38.858Z,6.93
2019-05-22T18:32:11.821Z,7.07
2019-05-22T18:34:43.780Z,6.70
2019-05-22T18:37:14.822Z,6.83
2019-05-22T18:39:45.869Z,6.53
2019-05-22T18:42:17.608Z,6.90
2019-05-22T18:44:49.307Z,7.93
2019-05-22T18:47:20.717Z,7.77
2019-05-22T18:49:51.679Z,7.53
2019-05-22T18:52:39.579Z,8.73
2019-05-22T18:54:55.875Z,8.03
2019-05-22T18:57:27.387Z,6.73
2019-05-22T19:00:04.084Z,7.70
2019-05-22T19:02:33.198Z,8.40
2019-05-22T19:05:07.379Z,9.30
2019-05-22T19:07:38.615Z,9.53
2019-05-22T19:10:12.158Z,9.53
2019-05-22T19:12:44.099Z,8.23
2019-05-22T19:15:15.481Z,8.77
2019-05-22T19:17:47.626Z,8.60
2019-05-22T19:20:18.195Z,9.33
2019-05-22T19:22:59.894Z,8.07
2019-05-22T19:25:23.747Z,8.83
2019-05-22T19:27:56.602Z,7.67
2019-05-22T19:30:29.063Z,9.17
2019-05-22T19:33:06.118Z,9.93
2019-05-22T19:35:37.534Z,8.30
2019-05-22T19:38:10.047Z,8.73
2019-05-22T19:40:41.547Z,7.60
2019-05-22T19:43:13.351Z,8.73
2019-05-22T19:45:45.880Z,7.87
2019-05-22T19:48:18.674Z,9.13
2019-05-22T19:50:52.216Z,8.07
2019-05-22T19:53:25.009Z,8.73
2019-05-22T19:55:56.100Z,8.80
2019-05-22T19:58:26.555Z,8.30
2019-05-22T20:00:57.387Z,8.90
2019-05-22T20:03:29.339Z,15.43
2019-05-22T20:06:00.314Z,15.13
2019-05-22T20:08:31.078Z,9.57
2019-05-22T20:11:02.266Z,7.17
2019-05-22T20:13:32.783Z,7.87
2019-05-22T20:16:03.289Z,7.53
2019-05-22T20:18:34.134Z,8.07
2019-05-22T20:21:04.383Z,9.10
2019-05-22T20:23:37.059Z,7.93
2019-05-22T20:26:07.896Z,8.63
2019-05-22T20:28:38.915Z,7.10
2019-05-22T20:31:12.547Z,7.03
2019-05-22T20:33:42.657Z,7.00
2019-05-22T20:36:13.019Z,6.40
2019-05-22T20:38:43.691Z,5.20
2019-05-22T20:41:14.155Z,5.43
2019-05-22T20:43:44.663Z,6.10
2019-05-22T20:46:15.259Z,6.17
2019-05-22T20:48:45.597Z,5.60
2019-05-22T20:51:16.803Z,6.37
2019-05-22T20:53:54.003Z,6.83
2019-05-22T20:56:24.368Z,7.20
2019-05-22T20:58:54.503Z,6.87
2019-05-22T21:01:25.067Z,6.03
2019-05-22T21:04:00.067Z,5.93
2019-05-22T21:06:31.758Z,6.57
2019-05-22T21:09:02.411Z,5.70
2019-05-22T21:11:36.310Z,7.00
2019-05-22T21:14:06.786Z,6.93
2019-05-22T21:16:37.426Z,6.50
2019-05-22T21:19:08.348Z,6.67
2019-05-22T21:21:39.115Z,7.13
2019-05-22T21:24:12.312Z,6.50
2019-05-22T21:26:42.751Z,7.70
2019-05-22T21:29:13.179Z,6.33
2019-05-22T21:31:47.714Z,7.13
2019-05-22T21:34:16.671Z,5.73
2019-05-22T21:36:47.652Z,7.03
2019-05-22T21:39:18.115Z,7.07
2019-05-22T21:41:48.957Z,6.70
2019-05-22T21:44:19.228Z,7.70
2019-05-22T21:46:48.974Z,6.60
2019-05-22T21:49:19.627Z,6.60
2019-05-22T21:51:49.625Z,6.13
2019-05-22T21:54:20.304Z,7.83
2019-05-22T21:56:51.095Z,7.50
2019-05-22T21:59:21.678Z,6.73
2019-05-22T22:01:58.585Z,7.90
2019-05-22T22:04:36.813Z,6.33
2019-05-22T22:07:06.754Z,7.63
2019-05-22T22:09:36.989Z,7.20
2019-05-22T22:12:08.265Z,7.40
2019-05-22T22:14:37.991Z,8.03
2019-05-22T22:17:09.404Z,7.93
2019-05-22T22:19:42.115Z,7.70
2019-05-22T22:22:14.544Z,8.23
2019-05-22T22:24:44.757Z,7.00
2019-05-22T22:27:16.591Z,7.30
2019-05-22T22:29:47.636Z,8.13
2019-05-22T22:32:19.087Z,7.20
2019-05-22T22:34:51.475Z,7.30
2019-05-22T22:37:23.217Z,7.27
2019-05-22T22:39:59.055Z,6.73
2019-05-22T22:42:31.378Z,6.73
2019-05-22T22:45:04.389Z,7.13
2019-05-22T22:47:39.069Z,7.70
2019-05-22T22:50:09.719Z,6.33
2019-05-22T22:52:39.641Z,7.90
2019-05-22T22:55:11.567Z,8.13
2019-05-22T22:57:41.999Z,7.87
2019-05-22T23:00:15.627Z,9.50
2019-05-22T23:02:48.337Z,7.83
2019-05-22T23:05:18.794Z,7.37
2019-05-22T23:07:49.227Z,7.33
2019-05-22T23:10:21.435Z,6.80
2019-05-22T23:12:53.506Z,6.97
2019-05-22T23:15:25.618Z,6.73
2019-05-22T23:17:56.358Z,7.23
2019-05-22T23:20:35.830Z,7.67
2019-05-22T23:23:05.414Z,7.63
2019-05-22T23:25:37.464Z,6.50
2019-05-22T23:28:08.412Z,7.43
2019-05-22T23:30:39.750Z,7.53
2019-05-22T23:33:10.210Z,7.13
2019-05-22T23:35:40.963Z,6.43
2019-05-22T23:38:11.165Z,6.50
2019-05-22T23:40:42.146Z,6.73
2019-05-22T23:43:11.858Z,6.73
2019-05-22T23:45:42.266Z,7.07
2019-05-22T23:48:14.062Z,5.87
2019-05-22T23:50:44.693Z,6.30
2019-05-22T23:53:16.061Z,6.30
2019-05-22T23:55:48.574Z,7.73
2019-05-22T23:58:19.966Z,7.23
